TFM - Tactical Decision Aid (Experimental) INFO Settings
ID: Runway Winds: CIG/VIS Threshold: METAR Board:

KGWO - Greenwood-Leflore

Updated at: 1533 UTC 18 Jun 2018
Latest TAF at: 1134 UTC 18 Jun 2018

TAF Board

Time1453Z18/16Z18/17Z18/18Z18/19Z18/20Z18/21Z18/22Z18/23Z19/00Z19/01Z19/02Z19/03Z19/04Z
TypeOBSPRVLPRVLPRVLPRVLPRVLPRVLPRVLPRVLPRVLPRVLPRVLPRVLPRVL
VIS10>6>6>6>6>6>6>6>6>6>6>6>6>6
CIG----------------------------
CoverFEWFEWSCTSCTSCTSCTSCTSCTSCTSCTSCTSCTSCTSCT
FltCatVFRVFRVFRVFRVFRVFRVFRVFRVFRVFRVFRVFRVFRVFR
WX----------------------------
WDir150150170170170170170170170170170170170170
WSpd85888888888888
WGst----------------------------
TAF
KGWO 181134Z 1812/1912 15005KT P6SM FEW120
  FM181700 17008KT P6SM SCT120


METAR Board

Time 18/04Z 18/05Z 18/06Z 18/07Z 18/08Z 18/09Z 18/10Z 18/11Z 18/12Z 18/13Z 18/14Z 18/15Z
Temp78 78 75 75 75 73 73 72 74 78 82 86
Dewpt73 74 72 71 70 69 69 69 70 71 71 70
Altim30.10 30.11 30.08 30.06 30.07 30.08 30.09 30.11 30.12 30.14 30.15 30.14
VIS10 10 10 10 10 10 10 10 10 10 10 10
CIG-- 90 -- -- -- -- -- -- -- -- -- --
CoverCLRBKNCLRCLRCLRCLRCLRCLRCLRCLRSCTFEW
FltCatVFRVFRVFRVFRVFRVFRVFRVFRVFRVFRVFRVFR
WX------------------------
WDir150902202101800000130170150
WSpd3 4 3 4 3 0 0 0 0 4 6 8
WGst-- -- -- -- -- -- -- -- -- -- -- --
METAR
KGWO 180353Z AUTO 15003KT 10SM CLR 26/23 A3010 RMK AO2 SLP190 T02560228
KGWO 180453Z AUTO 09004KT 10SM BKN090 26/23 A3011 RMK AO2 SLP193 T02560233
KGWO 180553Z AUTO 22003KT 10SM CLR 24/22 A3008 RMK AO2 SLP183 T02390222 10289 20239 403390222 58008
KGWO 180653Z AUTO 21004KT 10SM CLR 24/22 A3006 RMK AO2 SLP178 T02390217
KGWO 180753Z AUTO 18003KT 10SM CLR 24/21 A3007 RMK AO2 SLP181 T02390211
KGWO 180853Z AUTO 00000KT 10SM CLR 23/21 A3008 RMK AO2 SLP183 T02280206 53000
KGWO 180953Z AUTO 00000KT 10SM CLR 23/21 A3009 RMK AO2 SLP187 T02280206
KGWO 181053Z AUTO 00000KT 10SM CLR 22/21 A3011 RMK AO2 SLP193 T02220206
KGWO 181153Z AUTO 00000KT 10SM CLR 23/21 A3012 RMK AO2 SLP197 T02330211 10239 20217 53013
KGWO 181253Z AUTO 13004KT 10SM CLR 26/22 A3014 RMK AO2 SLP203 T02560217
KGWO 181353Z AUTO 17006KT 10SM SCT100 28/22 A3015 RMK AO2 SLP206 T02780217
KGWO 181453Z AUTO 15008KT 10SM FEW100 30/21 A3014 RMK AO2 SLP203 T03000211 50006

TAF/METAR Board Legend

Potential Impact
  None Marginal Slight Moderate High
Visibility (sm) >5 3≤X≤5 2≤X<3 0.5≤X<2 <0.5
Ceiling (100 ft) >30 10≤X≤30 6≤X<10 2≤X<6 <2
Wind Speed (kt) <10 10≤X<20 20≤X<30 ≥30
Wind Gust (kt) <15 15≤X<25 25≤X<35 ≥35
Weather No Wx Reported VCTS -TS,-FZRA TS,FZRA +TS,+FZRA




Page loaded:  15:33 UTC  |   08:33 AM Pacific  |   09:33 AM Mountain  |   10:33 AM Central  |   11:33 AM Eastern

 

ADVISORIES

FORECASTS

FORECASTS

OBSERVATIONS

USER TOOLS

ABOUT US